Duncan, Canada
Current Conditions -  °F | °C
As of 11:00 PM on Wednesday 22 Oct 2014 (Local Time) from CYYJ Reporting Station
Few Clouds Few Clouds  
Wind Chill: 52°   Ceiling: Unl
Heat Index: 52°   Visibility: 30mi
Dew Point: 46°   Wind: 7mph
Humidity: 82%   Direction: 230°SW
Pressure: 29.57"   Gusts: NA
Location:  48.78°N, 123.7°W
Report Text: CYYJ 230600Z 23006KT 190V260 30SM FEW035 FEW082 FEW110 11/08 A2957 RMK SC1AC1AC1 AC TR SLP014
Loading
Personal Weather Stations






























Interactive Weather Map
Tropical Storm Tracking
New forecast layout! Learn more

10-Day Weather Forecast

Advertisements
Track Severe Weather on mobile